DLH430 KATL-KCLT
Flight info
| Callsign | DLH430 |
|---|---|
| Flight time | 0h 43m |
| Altitude | 27000 |
| Route | PHIIL3 PHIIL CNTLR JONZE5 |
| Aircraft | A346/H-SDE2E3FGHIJ3J4J5M1RWXY/LB1D1 |
Departure
| Time | 2026-05-07 01:45 |
|---|---|
| Airport | Hartsfield Jackson Atlanta International Airport (KATL) |
Arrival
| Time | 2026-05-07 02:29 |
|---|---|
| Airport | Charlotte Douglas International Airport (KCLT) |
| Time | Latitude | Longitude | Altitude | Speed | Heading |
|---|---|---|---|---|---|
| 2026-05-07 01:17 | 33.63807 | -84.41901 | 1015 ft | 0 kts | 269° |
| 2026-05-07 01:34 | 33.63807 | -84.41902 | 1015 ft | 0 kts | 269° |
| 2026-05-07 01:35 | 33.63807 | -84.41903 | 1015 ft | 0 kts | 269° |
| 2026-05-07 01:37 | 33.63808 | -84.41887 | 1015 ft | 0 kts | 269° |
| 2026-05-07 01:37 | 33.63808 | -84.41855 | 1015 ft | 1 kts | 269° |
| 2026-05-07 01:37 | 33.63809 | -84.41824 | 1015 ft | 4 kts | 268° |
| 2026-05-07 01:37 | 33.63814 | -84.41802 | 1015 ft | 5 kts | 233° |
| 2026-05-07 01:38 | 33.63817 | -84.41799 | 1015 ft | 0 kts | 226° |
| 2026-05-07 01:40 | 33.63809 | -84.41806 | 1015 ft | 2 kts | 216° |
| 2026-05-07 01:40 | 33.63786 | -84.41819 | 1015 ft | 5 kts | 197° |
| 2026-05-07 01:40 | 33.63755 | -84.41824 | 1015 ft | 0 kts | 181° |
| 2026-05-07 01:41 | 33.63754 | -84.41824 | 1015 ft | 0 kts | 181° |
| 2026-05-07 01:41 | 33.63704 | -84.41825 | 1015 ft | 9 kts | 174° |
| 2026-05-07 01:42 | 33.63660 | -84.41770 | 1015 ft | 12 kts | 104° |
| 2026-05-07 01:42 | 33.63655 | -84.41656 | 1014 ft | 16 kts | 89° |
| 2026-05-07 01:42 | 33.63656 | -84.41489 | 1014 ft | 24 kts | 90° |
| 2026-05-07 01:42 | 33.63654 | -84.41262 | 1014 ft | 30 kts | 90° |
| 2026-05-07 01:43 | 33.63654 | -84.41042 | 1015 ft | 23 kts | 90° |
| 2026-05-07 01:43 | 33.63639 | -84.40933 | 1015 ft | 12 kts | 132° |
| 2026-05-07 01:43 | 33.63561 | -84.40911 | 1015 ft | 9 kts | 177° |
| 2026-05-07 01:43 | 33.63511 | -84.40910 | 1015 ft | 4 kts | 188° |
| 2026-05-07 01:44 | 33.63486 | -84.40927 | 1015 ft | 5 kts | 230° |
| 2026-05-07 01:44 | 33.63471 | -84.41011 | 1015 ft | 7 kts | 271° |
| 2026-05-07 01:44 | 33.63471 | -84.41012 | 1015 ft | 0 kts | 271° |
| 2026-05-07 01:44 | 33.63471 | -84.41219 | 1014 ft | 61 kts | 269° |
| 2026-05-07 01:45 | 33.63469 | -84.42015 | 1016 ft | 127 kts | 270° |
| 2026-05-07 01:45 | 33.63474 | -84.43310 | 1034 ft | 179 kts | 268° |
| 2026-05-07 01:45 | 33.63497 | -84.44880 | 1520 ft | 193 kts | 269° |
| 2026-05-07 01:45 | 33.63541 | -84.46479 | 2400 ft | 187 kts | 267° |
| 2026-05-07 01:46 | 33.63367 | -84.47949 | 3243 ft | 176 kts | 244° |
| 2026-05-07 01:46 | 33.62795 | -84.49303 | 3686 ft | 188 kts | 238° |
| 2026-05-07 01:46 | 33.62128 | -84.50736 | 4094 ft | 205 kts | 239° |
| 2026-05-07 01:46 | 33.61429 | -84.52297 | 4476 ft | 225 kts | 240° |
| 2026-05-07 01:47 | 33.60675 | -84.54036 | 4988 ft | 242 kts | 241° |
| 2026-05-07 01:47 | 33.59898 | -84.55859 | 5768 ft | 246 kts | 240° |
| 2026-05-07 01:47 | 33.58802 | -84.57429 | 6636 ft | 249 kts | 218° |
| 2026-05-07 01:47 | 33.57210 | -84.58303 | 7512 ft | 259 kts | 197° |
| 2026-05-07 01:48 | 33.55376 | -84.58445 | 8325 ft | 268 kts | 186° |
| 2026-05-07 01:48 | 33.53500 | -84.58456 | 9215 ft | 271 kts | 186° |
| 2026-05-07 01:48 | 33.51585 | -84.58453 | 10102 ft | 275 kts | 184° |
| 2026-05-07 01:48 | 33.49648 | -84.57996 | 10759 ft | 298 kts | 166° |
| 2026-05-07 01:49 | 33.47781 | -84.56677 | 11232 ft | 329 kts | 146° |
| 2026-05-07 01:49 | 33.46286 | -84.54451 | 11656 ft | 361 kts | 122° |
| 2026-05-07 01:49 | 33.45556 | -84.51457 | 12068 ft | 391 kts | 98° |
| 2026-05-07 01:49 | 33.45514 | -84.48117 | 12518 ft | 410 kts | 91° |
| 2026-05-07 01:50 | 33.45561 | -84.44628 | 12924 ft | 426 kts | 91° |
| 2026-05-07 01:50 | 33.45594 | -84.41034 | 13603 ft | 434 kts | 91° |
| 2026-05-07 01:50 | 33.45609 | -84.37396 | 14388 ft | 439 kts | 90° |
| 2026-05-07 01:50 | 33.45850 | -84.33724 | 15068 ft | 445 kts | 83° |
| 2026-05-07 01:51 | 33.46446 | -84.30059 | 15718 ft | 451 kts | 75° |
| 2026-05-07 01:51 | 33.47314 | -84.26426 | 16419 ft | 455 kts | 72° |
| 2026-05-07 01:51 | 33.48252 | -84.22790 | 17100 ft | 458 kts | 71° |
| 2026-05-07 01:51 | 33.49211 | -84.19116 | 17710 ft | 463 kts | 71° |
| 2026-05-07 01:52 | 33.50172 | -84.15407 | 18299 ft | 468 kts | 71° |
| 2026-05-07 01:52 | 33.51135 | -84.11652 | 18796 ft | 473 kts | 71° |
| 2026-05-07 01:52 | 33.52099 | -84.07863 | 19321 ft | 478 kts | 71° |
| 2026-05-07 01:52 | 33.53069 | -84.04031 | 19880 ft | 482 kts | 71° |
| 2026-05-07 01:53 | 33.54045 | -84.00158 | 20424 ft | 487 kts | 71° |
| 2026-05-07 01:53 | 33.55011 | -83.96289 | 20910 ft | 495 kts | 71° |
| 2026-05-07 01:53 | 33.56011 | -83.92305 | 21417 ft | 501 kts | 71° |
| 2026-05-07 01:53 | 33.57022 | -83.88274 | 21986 ft | 506 kts | 71° |
| 2026-05-07 01:54 | 33.58092 | -83.84232 | 22651 ft | 507 kts | 68° |
| 2026-05-07 01:54 | 33.59345 | -83.80282 | 23469 ft | 504 kts | 64° |
| 2026-05-07 01:54 | 33.60767 | -83.76408 | 24165 ft | 502 kts | 62° |
| 2026-05-07 01:54 | 33.62234 | -83.72579 | 24843 ft | 501 kts | 62° |
| 2026-05-07 01:55 | 33.63696 | -83.68783 | 25499 ft | 501 kts | 62° |
| 2026-05-07 01:55 | 33.65056 | -83.64918 | 26112 ft | 504 kts | 65° |
| 2026-05-07 01:55 | 33.66312 | -83.60971 | 26656 ft | 507 kts | 66° |
| 2026-05-07 01:55 | 33.67595 | -83.57004 | 26937 ft | 510 kts | 63° |
| 2026-05-07 01:56 | 33.69147 | -83.53182 | 26963 ft | 509 kts | 57° |
| 2026-05-07 01:56 | 33.70900 | -83.49476 | 26964 ft | 508 kts | 55° |
| 2026-05-07 01:56 | 33.72704 | -83.45830 | 26961 ft | 507 kts | 55° |
| 2026-05-07 01:56 | 33.74519 | -83.42190 | 26965 ft | 507 kts | 55° |
| 2026-05-07 01:57 | 33.76301 | -83.38593 | 26994 ft | 507 kts | 55° |
| 2026-05-07 01:57 | 33.78096 | -83.34939 | 27023 ft | 508 kts | 54° |
| 2026-05-07 01:57 | 33.79886 | -83.31253 | 27010 ft | 510 kts | 54° |
| 2026-05-07 01:57 | 33.81680 | -83.27567 | 27007 ft | 511 kts | 54° |
| 2026-05-07 01:58 | 33.83495 | -83.23893 | 27006 ft | 510 kts | 52° |
| 2026-05-07 01:58 | 33.85407 | -83.20299 | 27006 ft | 509 kts | 51° |
| 2026-05-07 01:58 | 33.87351 | -83.16724 | 27003 ft | 509 kts | 51° |
| 2026-05-07 01:58 | 33.89295 | -83.13168 | 26999 ft | 508 kts | 51° |
| 2026-05-07 01:59 | 33.91241 | -83.09607 | 26991 ft | 507 kts | 51° |
| 2026-05-07 01:59 | 33.93174 | -83.06061 | 26986 ft | 507 kts | 51° |
| 2026-05-07 01:59 | 33.95108 | -83.02506 | 26987 ft | 506 kts | 51° |
| 2026-05-07 01:59 | 33.97035 | -82.98955 | 26999 ft | 506 kts | 51° |
| 2026-05-07 02:00 | 33.98964 | -82.95395 | 27007 ft | 506 kts | 51° |
| 2026-05-07 02:00 | 34.00890 | -82.91838 | 27007 ft | 507 kts | 51° |
| 2026-05-07 02:00 | 34.02818 | -82.88274 | 27039 ft | 507 kts | 51° |
| 2026-05-07 02:00 | 34.04747 | -82.84704 | 27027 ft | 508 kts | 51° |
| 2026-05-07 02:01 | 34.06679 | -82.81125 | 27024 ft | 509 kts | 51° |
| 2026-05-07 02:01 | 34.08606 | -82.77549 | 27013 ft | 508 kts | 51° |
| 2026-05-07 02:01 | 34.10535 | -82.73972 | 27017 ft | 506 kts | 52° |
| 2026-05-07 02:01 | 34.12452 | -82.70405 | 27014 ft | 506 kts | 52° |
| 2026-05-07 02:02 | 34.14364 | -82.66842 | 27004 ft | 506 kts | 52° |
| 2026-05-07 02:02 | 34.16278 | -82.63272 | 26996 ft | 506 kts | 52° |
| 2026-05-07 02:02 | 34.18191 | -82.59705 | 26988 ft | 506 kts | 52° |
| 2026-05-07 02:02 | 34.20104 | -82.56135 | 26981 ft | 506 kts | 52° |
| 2026-05-07 02:03 | 34.22015 | -82.52565 | 26969 ft | 505 kts | 52° |
| 2026-05-07 02:03 | 34.23931 | -82.48984 | 26978 ft | 505 kts | 52° |
| 2026-05-07 02:03 | 34.25843 | -82.45412 | 27005 ft | 506 kts | 52° |
| 2026-05-07 02:03 | 34.27750 | -82.41840 | 27002 ft | 506 kts | 53° |
| 2026-05-07 02:04 | 34.29657 | -82.38254 | 27004 ft | 506 kts | 53° |
| 2026-05-07 02:04 | 34.31532 | -82.34722 | 27015 ft | 505 kts | 53° |
| 2026-05-07 02:04 | 34.33429 | -82.31143 | 27022 ft | 504 kts | 53° |
| 2026-05-07 02:04 | 34.35323 | -82.27572 | 27026 ft | 504 kts | 53° |
| 2026-05-07 02:05 | 34.37232 | -82.23973 | 27027 ft | 504 kts | 53° |
| 2026-05-07 02:05 | 34.39130 | -82.20390 | 27026 ft | 504 kts | 53° |
| 2026-05-07 02:05 | 34.41026 | -82.16810 | 26834 ft | 504 kts | 53° |
| 2026-05-07 02:05 | 34.42912 | -82.13245 | 26568 ft | 501 kts | 53° |
| 2026-05-07 02:06 | 34.44792 | -82.09686 | 26246 ft | 499 kts | 53° |
| 2026-05-07 02:06 | 34.46657 | -82.06153 | 25876 ft | 496 kts | 53° |
| 2026-05-07 02:06 | 34.48515 | -82.02635 | 25360 ft | 495 kts | 53° |
| 2026-05-07 02:06 | 34.50372 | -81.99116 | 24771 ft | 496 kts | 53° |
| 2026-05-07 02:07 | 34.52232 | -81.95583 | 24161 ft | 497 kts | 53° |
| 2026-05-07 02:07 | 34.55958 | -81.88488 | 22799 ft | 499 kts | 53° |
| 2026-05-07 02:07 | 34.57821 | -81.84934 | 22133 ft | 498 kts | 53° |
| 2026-05-07 02:08 | 34.59677 | -81.81392 | 21492 ft | 495 kts | 53° |
| 2026-05-07 02:08 | 34.61513 | -81.77884 | 21064 ft | 488 kts | 53° |
| 2026-05-07 02:08 | 34.63322 | -81.74423 | 20615 ft | 482 kts | 53° |
| 2026-05-07 02:08 | 34.65108 | -81.71006 | 20177 ft | 476 kts | 53° |
| 2026-05-07 02:09 | 34.66886 | -81.67604 | 19734 ft | 471 kts | 53° |
| 2026-05-07 02:09 | 34.68631 | -81.64264 | 19296 ft | 465 kts | 53° |
| 2026-05-07 02:09 | 34.70355 | -81.60959 | 18894 ft | 461 kts | 53° |
| 2026-05-07 02:09 | 34.72040 | -81.57716 | 18453 ft | 457 kts | 53° |
| 2026-05-07 02:10 | 34.73761 | -81.54473 | 17989 ft | 453 kts | 51° |
| 2026-05-07 02:10 | 34.75609 | -81.51401 | 17535 ft | 446 kts | 47° |
| 2026-05-07 02:10 | 34.77601 | -81.48544 | 17092 ft | 439 kts | 43° |
| 2026-05-07 02:10 | 34.79679 | -81.45849 | 16652 ft | 434 kts | 41° |
| 2026-05-07 02:11 | 34.81763 | -81.43206 | 16225 ft | 430 kts | 41° |
| 2026-05-07 02:11 | 34.83830 | -81.40586 | 15785 ft | 427 kts | 41° |
| 2026-05-07 02:11 | 34.85881 | -81.37977 | 15370 ft | 424 kts | 42° |
| 2026-05-07 02:11 | 34.87914 | -81.35379 | 14941 ft | 422 kts | 43° |
| 2026-05-07 02:12 | 34.89935 | -81.32789 | 14515 ft | 419 kts | 43° |
| 2026-05-07 02:12 | 34.91934 | -81.30220 | 14091 ft | 417 kts | 43° |
| 2026-05-07 02:12 | 34.93928 | -81.27656 | 13647 ft | 415 kts | 44° |
| 2026-05-07 02:12 | 34.95908 | -81.25106 | 13103 ft | 412 kts | 44° |
| 2026-05-07 02:13 | 34.97868 | -81.22577 | 12679 ft | 408 kts | 44° |
| 2026-05-07 02:13 | 34.99792 | -81.20093 | 12097 ft | 395 kts | 44° |
| 2026-05-07 02:13 | 35.01626 | -81.17721 | 11766 ft | 374 kts | 44° |
| 2026-05-07 02:13 | 35.03348 | -81.15493 | 11469 ft | 361 kts | 44° |
| 2026-05-07 02:14 | 35.05069 | -81.13276 | 11142 ft | 358 kts | 44° |
| 2026-05-07 02:14 | 35.06771 | -81.11078 | 10854 ft | 354 kts | 44° |
| 2026-05-07 02:14 | 35.08472 | -81.08877 | 10872 ft | 355 kts | 43° |
| 2026-05-07 02:14 | 35.10387 | -81.07014 | 10780 ft | 349 kts | 23° |
| 2026-05-07 02:15 | 35.12637 | -81.06102 | 10627 ft | 334 kts | 1° |
| 2026-05-07 02:15 | 35.14906 | -81.06076 | 10328 ft | 322 kts | 349° |
| 2026-05-07 02:15 | 35.17134 | -81.06310 | 10070 ft | 320 kts | 347° |
| 2026-05-07 02:15 | 35.19369 | -81.06576 | 10002 ft | 324 kts | 349° |
| 2026-05-07 02:16 | 35.21623 | -81.06818 | 10003 ft | 325 kts | 349° |
| 2026-05-07 02:16 | 35.23876 | -81.07037 | 9999 ft | 324 kts | 349° |
| 2026-05-07 02:16 | 35.26083 | -81.07237 | 9982 ft | 310 kts | 350° |
| 2026-05-07 02:16 | 35.28174 | -81.07418 | 9884 ft | 290 kts | 349° |
| 2026-05-07 02:17 | 35.30101 | -81.07579 | 9862 ft | 266 kts | 348° |
| 2026-05-07 02:17 | 35.31906 | -81.07738 | 9985 ft | 257 kts | 348° |
| 2026-05-07 02:17 | 35.33071 | -81.07848 | 10045 ft | 248 kts | 348° |
| 2026-05-07 02:17 | 35.34787 | -81.08008 | 9844 ft | 252 kts | 347° |
| 2026-05-07 02:18 | 35.36548 | -81.08194 | 9329 ft | 255 kts | 348° |
| 2026-05-07 02:18 | 35.38311 | -81.08383 | 8892 ft | 253 kts | 348° |
| 2026-05-07 02:18 | 35.40061 | -81.08567 | 8461 ft | 251 kts | 348° |
| 2026-05-07 02:18 | 35.41797 | -81.08748 | 8037 ft | 249 kts | 348° |
| 2026-05-07 02:19 | 35.44076 | -81.08990 | 7512 ft | 247 kts | 348° |
| 2026-05-07 02:19 | 35.45234 | -81.09113 | 7226 ft | 246 kts | 348° |
| 2026-05-07 02:19 | 35.46937 | -81.09290 | 6826 ft | 245 kts | 348° |
| 2026-05-07 02:19 | 35.48629 | -81.09466 | 6419 ft | 244 kts | 348° |
| 2026-05-07 02:20 | 35.50309 | -81.09536 | 5992 ft | 250 kts | 2° |
| 2026-05-07 02:20 | 35.51925 | -81.08687 | 5563 ft | 260 kts | 35° |
| 2026-05-07 02:20 | 35.53014 | -81.06921 | 5150 ft | 262 kts | 68° |
| 2026-05-07 02:20 | 35.53493 | -81.04769 | 4771 ft | 261 kts | 80° |
| 2026-05-07 02:21 | 35.53833 | -81.02583 | 4344 ft | 260 kts | 82° |
| 2026-05-07 02:21 | 35.54164 | -81.00390 | 3936 ft | 261 kts | 82° |
| 2026-05-07 02:21 | 35.54502 | -80.98208 | 3562 ft | 260 kts | 82° |
| 2026-05-07 02:21 | 35.54841 | -80.96028 | 3204 ft | 259 kts | 82° |
| 2026-05-07 02:22 | 35.55109 | -80.93860 | 2936 ft | 251 kts | 94° |
| 2026-05-07 02:22 | 35.54664 | -80.91876 | 2931 ft | 236 kts | 129° |
| 2026-05-07 02:22 | 35.53506 | -80.90587 | 2940 ft | 219 kts | 165° |
| 2026-05-07 02:22 | 35.52080 | -80.90349 | 2980 ft | 202 kts | 194° |
| 2026-05-07 02:23 | 35.50713 | -80.90686 | 2985 ft | 199 kts | 201° |
| 2026-05-07 02:23 | 35.49385 | -80.91117 | 2968 ft | 196 kts | 201° |
| 2026-05-07 02:23 | 35.48075 | -80.91586 | 2955 ft | 197 kts | 202° |
| 2026-05-07 02:23 | 35.46753 | -80.92061 | 2960 ft | 199 kts | 202° |
| 2026-05-07 02:24 | 35.45423 | -80.92535 | 2989 ft | 199 kts | 202° |
| 2026-05-07 02:24 | 35.44102 | -80.93005 | 2970 ft | 196 kts | 202° |
| 2026-05-07 02:24 | 35.42799 | -80.93476 | 2964 ft | 195 kts | 202° |
| 2026-05-07 02:24 | 35.41487 | -80.93961 | 2968 ft | 198 kts | 202° |
| 2026-05-07 02:25 | 35.40169 | -80.94430 | 2934 ft | 197 kts | 202° |
| 2026-05-07 02:25 | 35.38860 | -80.94889 | 2965 ft | 194 kts | 202° |
| 2026-05-07 02:25 | 35.37594 | -80.95332 | 2932 ft | 182 kts | 201° |
| 2026-05-07 02:25 | 35.36444 | -80.95731 | 2923 ft | 168 kts | 201° |
| 2026-05-07 02:26 | 35.35309 | -80.96039 | 2953 ft | 168 kts | 195° |
| 2026-05-07 02:26 | 35.34145 | -80.96159 | 2937 ft | 167 kts | 191° |
| 2026-05-07 02:26 | 35.32983 | -80.96162 | 2778 ft | 167 kts | 188° |
| 2026-05-07 02:26 | 35.31807 | -80.96100 | 2529 ft | 169 kts | 185° |
| 2026-05-07 02:27 | 35.30636 | -80.96000 | 2340 ft | 168 kts | 185° |
| 2026-05-07 02:27 | 35.29474 | -80.95896 | 2131 ft | 164 kts | 183° |
| 2026-05-07 02:27 | 35.28382 | -80.95797 | 1896 ft | 151 kts | 184° |
| 2026-05-07 02:27 | 35.27358 | -80.95714 | 1713 ft | 147 kts | 182° |
| 2026-05-07 02:28 | 35.26326 | -80.95629 | 1511 ft | 150 kts | 178° |
| 2026-05-07 02:28 | 35.25263 | -80.95531 | 1333 ft | 154 kts | 179° |
| 2026-05-07 02:28 | 35.24185 | -80.95442 | 1088 ft | 157 kts | 177° |
| 2026-05-07 02:28 | 35.23071 | -80.95347 | 871 ft | 166 kts | 178° |
| 2026-05-07 02:29 | 35.21859 | -80.95253 | 759 ft | 168 kts | 176° |
| 2026-05-07 02:29 | 35.20815 | -80.95152 | 734 ft | 117 kts | 176° |
| 2026-05-07 02:29 | 35.20334 | -80.95108 | 738 ft | 36 kts | 175° |
| 2026-05-07 02:29 | 35.20154 | -80.95088 | 739 ft | 14 kts | 165° |
| 2026-05-07 02:30 | 35.20103 | -80.94989 | 738 ft | 16 kts | 88° |
| 2026-05-07 02:30 | 35.20105 | -80.94955 | 740 ft | 7 kts | 85° |
| 2026-05-07 02:30 | 35.20106 | -80.94944 | 739 ft | 0 kts | 84° |
| 2026-05-07 02:30 | 35.20106 | -80.94943 | 739 ft | 0 kts | 84° |
| 2026-05-07 02:31 | 35.20107 | -80.94940 | 739 ft | 2 kts | 64° |
| 2026-05-07 02:31 | 35.20157 | -80.94898 | 739 ft | 12 kts | 11° |
| 2026-05-07 02:31 | 35.20251 | -80.94902 | 739 ft | 15 kts | 355° |
| 2026-05-07 02:31 | 35.20369 | -80.94912 | 738 ft | 19 kts | 356° |
| 2026-05-07 02:32 | 35.20514 | -80.94924 | 736 ft | 23 kts | 356° |
| 2026-05-07 02:32 | 35.20681 | -80.94937 | 735 ft | 25 kts | 356° |
| 2026-05-07 02:32 | 35.20815 | -80.94949 | 734 ft | 19 kts | 356° |
| 2026-05-07 02:32 | 35.20961 | -80.94962 | 733 ft | 23 kts | 356° |
| 2026-05-07 02:33 | 35.21131 | -80.94977 | 731 ft | 26 kts | 355° |
| 2026-05-07 02:33 | 35.21320 | -80.94994 | 730 ft | 28 kts | 355° |
| 2026-05-07 02:33 | 35.21485 | -80.95010 | 729 ft | 22 kts | 355° |
| 2026-05-07 02:33 | 35.21628 | -80.95023 | 728 ft | 21 kts | 355° |
| 2026-05-07 02:34 | 35.21748 | -80.95033 | 727 ft | 18 kts | 356° |
| 2026-05-07 02:34 | 35.21839 | -80.95038 | 726 ft | 1 kts | 12° |
| 2026-05-07 02:34 | 35.21856 | -80.95022 | 728 ft | 9 kts | 46° |
| 2026-05-07 02:34 | 35.21868 | -80.94932 | 728 ft | 12 kts | 83° |
| 2026-05-07 02:35 | 35.21899 | -80.94846 | 728 ft | 6 kts | 49° |
| 2026-05-07 02:35 | 35.21936 | -80.94805 | 728 ft | 4 kts | 26° |
| 2026-05-07 02:35 | 35.21954 | -80.94800 | 729 ft | 4 kts | 13° |
| 2026-05-07 02:35 | 35.21966 | -80.94797 | 730 ft | 0 kts | 8° |